Terminal Aerodrome Forecast
Issued by NWS

Home | Current Version | Previous Version | Text Only | Print | Product List | Glossary On
Versions: 1 2 3 4 5 6 7 8 9 10 11 12 13 14 15 16 17 18 19 20 21 22 23 24 25 26 27 28 29 30 31 32 33 34 35
000
FTUS43 KDMX 261733
TAFOTM
TAF
KOTM 261733Z 2618/2718 07006KT P6SM OVC025
     FM262300 07006KT P6SM VCTS OVC025CB
     FM270200 VRB05KT P6SM OVC030
     FM271000 30007KT P6SM SKC=

USA.gov is the U.S. government's official web portal to all federal, state and local government web resources and services.